createdAt,value
2022-12-27T00:00:29.459Z,12.00
2022-12-27T00:02:56.432Z,11.90
2022-12-27T00:05:23.331Z,11.90
2022-12-27T00:07:50.233Z,11.90
2022-12-27T00:10:17.109Z,11.90
2022-12-27T00:12:43.989Z,11.80
2022-12-27T00:15:10.927Z,11.80
2022-12-27T00:17:37.764Z,11.80
2022-12-27T00:20:11.446Z,11.80
2022-12-27T00:22:40.372Z,11.80
2022-12-27T00:25:07.787Z,11.80
2022-12-27T00:27:34.658Z,11.80
2022-12-27T00:30:01.538Z,11.70
2022-12-27T00:32:28.377Z,11.70
2022-12-27T00:34:55.244Z,11.70
2022-12-27T00:37:22.356Z,11.70
2022-12-27T00:39:49.306Z,11.70
2022-12-27T00:42:16.154Z,11.70
2022-12-27T00:44:43.480Z,11.70
2022-12-27T00:47:10.796Z,11.70
2022-12-27T00:49:37.900Z,11.70
2022-12-27T00:52:05.018Z,11.70
2022-12-27T00:54:31.981Z,11.70
2022-12-27T00:56:58.826Z,11.70
2022-12-27T00:59:25.657Z,11.60
2022-12-27T01:01:52.794Z,11.60
2022-12-27T01:04:19.762Z,11.60
2022-12-27T01:06:46.712Z,11.60
2022-12-27T01:09:13.555Z,11.60
2022-12-27T01:11:41.272Z,11.50
2022-12-27T01:14:08.156Z,11.50
2022-12-27T01:16:35.316Z,11.50
2022-12-27T01:19:02.388Z,11.40
2022-12-27T01:21:30.864Z,11.40
2022-12-27T01:23:58.435Z,11.40
2022-12-27T01:26:26.145Z,11.40
2022-12-27T01:28:53.960Z,11.40
2022-12-27T01:31:25.265Z,11.30
2022-12-27T01:33:57.724Z,11.30
2022-12-27T01:36:26.309Z,11.30
2022-12-27T01:38:53.607Z,11.20
2022-12-27T01:42:01.042Z,11.30
2022-12-27T01:44:40.247Z,11.20
2022-12-27T01:47:12.850Z,11.20
2022-12-27T01:49:47.496Z,11.20
2022-12-27T01:52:14.676Z,11.20
2022-12-27T01:54:42.947Z,11.10
2022-12-27T01:57:10.358Z,11.10
2022-12-27T01:59:37.907Z,11.10
2022-12-27T02:02:05.424Z,11.10
2022-12-27T02:04:33.094Z,11.00
2022-12-27T02:07:00.343Z,11.00
2022-12-27T02:10:06.104Z,11.00
2022-12-27T02:12:33.299Z,11.00
2022-12-27T02:15:02.151Z,11.00
2022-12-27T02:17:30.938Z,11.00
2022-12-27T02:20:04.739Z,10.90
2022-12-27T02:23:20.604Z,10.90
2022-12-27T02:25:50.204Z,10.90
2022-12-27T02:28:48.519Z,10.90
2022-12-27T02:31:22.139Z,10.90
2022-12-27T02:33:52.966Z,10.90
2022-12-27T02:36:25.876Z,10.90
2022-12-27T02:38:57.874Z,10.80
2022-12-27T02:41:45.038Z,10.80
2022-12-27T02:44:30.999Z,10.80
2022-12-27T02:47:16.768Z,10.80
2022-12-27T02:50:02.747Z,10.80
2022-12-27T02:53:08.167Z,10.80
2022-12-27T02:56:12.094Z,10.70
2022-12-27T02:58:47.959Z,10.70
2022-12-27T03:02:06.963Z,10.70
2022-12-27T03:04:54.337Z,10.70
2022-12-27T03:07:29.917Z,10.60
2022-12-27T03:10:30.381Z,10.60
2022-12-27T03:13:32.162Z,10.60
2022-12-27T03:16:32.424Z,10.60
2022-12-27T03:19:04.921Z,10.60
2022-12-27T03:21:53.252Z,10.60
2022-12-27T03:24:43.807Z,10.60
2022-12-27T03:27:31.582Z,10.60
2022-12-27T03:30:19.532Z,10.50
2022-12-27T03:33:08.817Z,10.50
2022-12-27T03:36:17.210Z,10.50
2022-12-27T03:39:03.743Z,10.50
2022-12-27T03:41:56.449Z,10.50
2022-12-27T03:44:26.584Z,10.50
2022-12-27T03:46:59.099Z,10.50
2022-12-27T03:49:38.932Z,10.40
2022-12-27T03:52:08.542Z,10.40
2022-12-27T03:54:40.487Z,10.40
2022-12-27T03:57:11.653Z,10.40
2022-12-27T03:59:39.124Z,10.40
2022-12-27T04:02:08.799Z,10.40
2022-12-27T04:04:36.056Z,10.40
2022-12-27T04:07:03.909Z,10.40
2022-12-27T04:09:49.545Z,10.40
2022-12-27T04:12:34.956Z,10.40
2022-12-27T04:15:20.649Z,10.40
2022-12-27T04:18:05.989Z,10.40
2022-12-27T04:20:51.872Z,10.40
2022-12-27T04:23:37.171Z,10.40
2022-12-27T04:26:22.752Z,10.40
2022-12-27T04:29:08.145Z,10.40
2022-12-27T04:31:54.007Z,10.30
2022-12-27T04:34:39.620Z,10.40
2022-12-27T04:37:07.359Z,10.30
2022-12-27T04:39:34.179Z,10.30
2022-12-27T04:42:19.603Z,10.30
2022-12-27T04:45:07.872Z,10.30
2022-12-27T04:47:58.710Z,10.30
2022-12-27T04:50:50.154Z,10.30
2022-12-27T04:53:39.914Z,10.30
2022-12-27T04:56:07.539Z,10.30
2022-12-27T04:58:34.927Z,10.30
2022-12-27T05:01:22.753Z,10.30
2022-12-27T05:03:52.840Z,10.30
2022-12-27T05:06:19.855Z,10.30
2022-12-27T05:09:05.900Z,10.30
2022-12-27T05:11:51.477Z,10.30
2022-12-27T05:14:18.302Z,10.30
2022-12-27T05:16:45.622Z,10.20
2022-12-27T05:19:14.603Z,10.20
2022-12-27T05:22:05.119Z,10.20
2022-12-27T05:24:51.316Z,10.30
2022-12-27T05:27:18.233Z,10.20
2022-12-27T05:29:46.235Z,10.30
2022-12-27T05:32:13.887Z,10.20
2022-12-27T05:34:41.507Z,10.20
2022-12-27T05:37:08.723Z,10.20
2022-12-27T05:39:35.908Z,10.20
2022-12-27T05:42:03.437Z,10.20
2022-12-27T05:44:30.415Z,10.20
2022-12-27T05:46:57.314Z,10.20
2022-12-27T05:49:24.176Z,10.20
2022-12-27T05:51:50.995Z,10.20
2022-12-27T05:54:17.852Z,10.20
2022-12-27T05:56:44.709Z,10.20
2022-12-27T05:59:11.537Z,10.20
2022-12-27T06:01:39.772Z,10.20
2022-12-27T06:04:06.682Z,10.20
2022-12-27T06:06:34.419Z,10.20
2022-12-27T06:09:01.525Z,10.20
2022-12-27T06:11:28.390Z,10.20
2022-12-27T06:13:55.459Z,10.20
2022-12-27T06:16:22.831Z,10.20
2022-12-27T06:18:49.816Z,10.20
2022-12-27T06:21:19.888Z,10.20
2022-12-27T06:23:47.604Z,10.20
2022-12-27T06:26:23.284Z,10.20
2022-12-27T06:28:51.689Z,10.10
2022-12-27T06:31:19.795Z,10.10
2022-12-27T06:33:48.137Z,10.10
2022-12-27T06:36:17.026Z,10.10
2022-12-27T06:38:44.631Z,10.10
2022-12-27T06:41:17.438Z,10.10
2022-12-27T06:43:45.213Z,10.10
2022-12-27T06:46:17.586Z,10.10
2022-12-27T06:48:48.571Z,10.10
2022-12-27T06:51:17.975Z,10.10
2022-12-27T06:53:49.470Z,10.10
2022-12-27T06:56:19.102Z,10.10
2022-12-27T06:58:47.691Z,10.00
2022-12-27T07:01:17.316Z,10.10
2022-12-27T07:03:56.686Z,10.00
2022-12-27T07:06:25.364Z,10.10
2022-12-27T07:08:52.737Z,10.10
2022-12-27T07:11:20.656Z,10.10
2022-12-27T07:13:50.335Z,10.00
2022-12-27T07:16:21.347Z,10.00
2022-12-27T07:18:49.959Z,10.00
2022-12-27T07:21:20.420Z,10.00
2022-12-27T07:23:47.825Z,10.00
2022-12-27T07:26:19.781Z,10.00
2022-12-27T07:28:46.886Z,10.00
2022-12-27T07:31:19.116Z,10.00
2022-12-27T07:33:46.515Z,10.00
2022-12-27T07:36:40.878Z,10.00
2022-12-27T07:39:08.605Z,10.00
2022-12-27T07:41:36.446Z,10.00
2022-12-27T07:44:04.438Z,10.00
2022-12-27T07:46:31.261Z,10.00
2022-12-27T07:48:58.873Z,10.00
2022-12-27T07:51:27.554Z,10.00
2022-12-27T07:53:55.040Z,10.00
2022-12-27T07:56:27.189Z,10.00
2022-12-27T07:58:55.671Z,10.00
2022-12-27T08:01:23.769Z,10.00
2022-12-27T08:03:50.676Z,9.90
2022-12-27T08:06:24.335Z,10.00
2022-12-27T08:08:52.810Z,9.90
2022-12-27T08:11:20.386Z,9.90
2022-12-27T08:13:47.840Z,9.90
2022-12-27T08:16:24.037Z,9.90
2022-12-27T08:18:51.178Z,9.90
2022-12-27T08:21:18.028Z,10.00
2022-12-27T08:23:45.358Z,10.00
2022-12-27T08:26:12.228Z,10.00
2022-12-27T08:28:39.140Z,10.00
2022-12-27T08:31:10.884Z,9.90
2022-12-27T08:33:37.933Z,10.00
2022-12-27T08:36:29.179Z,10.00
2022-12-27T08:38:57.314Z,10.00
2022-12-27T08:41:24.388Z,10.00
2022-12-27T08:43:51.198Z,10.00
2022-12-27T08:46:19.503Z,10.00
2022-12-27T08:48:50.067Z,10.00
2022-12-27T08:51:26.571Z,10.00
2022-12-27T08:53:57.168Z,10.00
2022-12-27T08:56:25.308Z,10.00
2022-12-27T08:58:52.227Z,10.00
2022-12-27T09:01:19.429Z,10.00
2022-12-27T09:03:46.488Z,10.00
2022-12-27T09:06:17.642Z,10.00
2022-12-27T09:08:47.120Z,10.10
2022-12-27T09:11:16.505Z,10.10
2022-12-27T09:13:43.826Z,10.20
2022-12-27T09:16:14.226Z,10.20
2022-12-27T09:18:42.545Z,10.20
2022-12-27T09:21:13.583Z,10.30
2022-12-27T09:23:41.355Z,10.30
2022-12-27T09:26:10.387Z,10.30
2022-12-27T09:28:37.647Z,10.30
2022-12-27T09:31:06.416Z,10.40
2022-12-27T09:33:33.457Z,10.40
2022-12-27T09:36:09.225Z,10.50
2022-12-27T09:38:36.862Z,10.50
2022-12-27T09:41:06.746Z,10.60
2022-12-27T09:43:39.513Z,10.60
2022-12-27T09:46:13.131Z,10.60
2022-12-27T09:48:40.712Z,10.60
2022-12-27T09:51:20.362Z,10.70
2022-12-27T09:54:05.999Z,10.70
2022-12-27T09:57:09.657Z,10.70
2022-12-27T09:59:33.223Z,10.70
2022-12-27T10:02:00.126Z,10.70
2022-12-27T10:05:09.821Z,10.70
2022-12-27T10:07:46.654Z,10.60
2022-12-27T10:10:44.371Z,10.60
2022-12-27T10:13:17.886Z,10.70
2022-12-27T10:16:00.765Z,10.70
2022-12-27T10:18:58.838Z,10.70
2022-12-27T10:21:29.490Z,10.80
2022-12-27T10:24:06.413Z,10.80
2022-12-27T10:26:33.413Z,10.80
2022-12-27T10:29:19.875Z,10.80
2022-12-27T10:31:46.965Z,10.80
2022-12-27T10:34:16.904Z,10.90
2022-12-27T10:36:45.142Z,10.90
2022-12-27T10:39:18.913Z,10.80
2022-12-27T10:42:16.916Z,10.90
2022-12-27T10:44:43.811Z,10.90
2022-12-27T10:47:11.767Z,10.90
2022-12-27T10:49:40.868Z,10.90
2022-12-27T10:52:09.460Z,10.90
2022-12-27T10:54:53.763Z,10.90
2022-12-27T10:57:34.338Z,10.90
2022-12-27T11:00:22.769Z,10.90
2022-12-27T11:02:58.584Z,10.90
2022-12-27T11:05:31.140Z,10.90
2022-12-27T11:07:58.502Z,11.00
2022-12-27T11:10:33.630Z,11.00
2022-12-27T11:13:01.928Z,11.00
2022-12-27T11:15:34.118Z,11.00
2022-12-27T11:18:17.142Z,11.00
2022-12-27T11:20:50.443Z,11.00
2022-12-27T11:23:20.907Z,11.00
2022-12-27T11:26:00.491Z,11.00
2022-12-27T11:28:31.833Z,11.10
2022-12-27T11:31:05.202Z,11.10
2022-12-27T11:33:50.181Z,11.00
2022-12-27T11:36:35.733Z,11.10
2022-12-27T11:39:03.133Z,11.10
2022-12-27T11:41:54.163Z,11.10
2022-12-27T11:44:24.615Z,11.10
2022-12-27T11:47:06.226Z,11.10
2022-12-27T11:49:40.209Z,11.10
2022-12-27T11:52:23.619Z,11.10
2022-12-27T11:54:59.321Z,11.10
2022-12-27T11:57:33.573Z,11.10
2022-12-27T12:00:09.413Z,11.10
2022-12-27T12:03:17.790Z,11.10
2022-12-27T12:05:55.822Z,11.10
2022-12-27T12:08:51.341Z,11.20
2022-12-27T12:11:54.905Z,11.20
2022-12-27T12:14:43.509Z,11.20
2022-12-27T12:17:18.985Z,11.20
2022-12-27T12:20:18.280Z,11.20
2022-12-27T12:22:58.762Z,11.30
2022-12-27T12:25:59.949Z,11.30
2022-12-27T12:28:57.142Z,11.30
2022-12-27T12:31:45.041Z,11.30
2022-12-27T12:34:47.048Z,11.30
2022-12-27T12:37:43.492Z,11.30
2022-12-27T12:40:44.360Z,11.40
2022-12-27T12:43:23.484Z,11.40
2022-12-27T12:46:11.942Z,11.50
2022-12-27T12:48:56.126Z,11.50
2022-12-27T12:51:31.832Z,11.60
2022-12-27T12:54:16.865Z,11.60
2022-12-27T12:56:57.303Z,11.60
2022-12-27T13:00:15.269Z,11.60
2022-12-27T13:03:27.819Z,11.60
2022-12-27T13:06:18.794Z,11.60
2022-12-27T13:09:07.190Z,11.70
2022-12-27T13:12:11.910Z,11.70
2022-12-27T13:15:06.295Z,11.70
2022-12-27T13:17:59.653Z,11.70
2022-12-27T13:20:46.460Z,11.70
2022-12-27T13:23:35.426Z,11.70
2022-12-27T13:26:07.851Z,11.70
2022-12-27T13:29:15.702Z,11.70
2022-12-27T13:32:13.350Z,11.70
2022-12-27T13:34:55.282Z,11.70
2022-12-27T13:37:50.636Z,11.70
2022-12-27T13:40:29.195Z,11.70
2022-12-27T13:43:06.007Z,11.70
2022-12-27T13:46:02.311Z,11.70
2022-12-27T13:48:53.928Z,11.70
2022-12-27T13:51:48.750Z,11.70
2022-12-27T13:54:41.478Z,11.80
2022-12-27T13:57:32.576Z,11.80
2022-12-27T14:00:04.440Z,11.80
2022-12-27T14:03:08.868Z,11.80
2022-12-27T14:05:52.601Z,11.80
2022-12-27T14:09:05.321Z,11.80
2022-12-27T14:12:07.481Z,11.80
2022-12-27T14:14:39.233Z,11.80
2022-12-27T14:17:24.773Z,11.80
2022-12-27T14:20:17.381Z,11.80
2022-12-27T14:23:11.356Z,11.80
2022-12-27T14:25:59.431Z,11.80
2022-12-27T14:29:07.893Z,11.80
2022-12-27T14:32:05.547Z,11.80
2022-12-27T14:34:49.521Z,11.70
2022-12-27T14:37:57.942Z,11.80
2022-12-27T14:40:58.427Z,11.80
2022-12-27T14:43:46.801Z,11.80
2022-12-27T14:46:40.727Z,11.80
2022-12-27T14:49:40.756Z,11.80
2022-12-27T14:52:26.472Z,11.80
2022-12-27T14:55:18.159Z,11.80
2022-12-27T14:58:06.223Z,11.70
2022-12-27T15:00:49.618Z,11.70
2022-12-27T15:03:41.405Z,11.60
2022-12-27T15:06:51.247Z,11.60
2022-12-27T15:09:36.965Z,11.60
2022-12-27T15:12:28.624Z,11.60
2022-12-27T15:15:15.249Z,11.60
2022-12-27T15:18:17.380Z,11.60
2022-12-27T15:20:53.084Z,11.60
2022-12-27T15:23:51.310Z,11.50
2022-12-27T15:26:24.834Z,11.50
2022-12-27T15:29:14.517Z,11.50
2022-12-27T15:32:00.253Z,11.50
2022-12-27T15:35:01.286Z,11.50
2022-12-27T15:38:06.195Z,11.40
2022-12-27T15:40:32.925Z,11.40
2022-12-27T15:43:34.676Z,11.40
2022-12-27T15:46:36.093Z,11.40
2022-12-27T15:49:06.543Z,11.40
2022-12-27T15:51:45.011Z,11.40
2022-12-27T15:55:00.587Z,11.40
2022-12-27T15:57:48.897Z,11.30
2022-12-27T16:00:24.808Z,11.30
2022-12-27T16:02:55.489Z,11.30
2022-12-27T16:05:22.364Z,11.30
2022-12-27T16:08:12.406Z,11.30
2022-12-27T16:10:42.069Z,11.30
2022-12-27T16:13:11.627Z,11.30
2022-12-27T16:15:45.303Z,11.30
2022-12-27T16:18:50.945Z,11.30
2022-12-27T16:21:26.742Z,11.20
2022-12-27T16:24:04.982Z,11.20
2022-12-27T16:26:35.289Z,11.20
2022-12-27T16:29:09.665Z,11.30
2022-12-27T16:31:45.185Z,11.20
2022-12-27T16:34:27.820Z,11.30
2022-12-27T16:36:58.466Z,11.30
2022-12-27T16:39:50.614Z,11.30
2022-12-27T16:42:26.989Z,11.20
2022-12-27T16:45:05.994Z,11.20
2022-12-27T16:47:54.783Z,11.20
2022-12-27T16:50:32.613Z,11.20
2022-12-27T16:53:46.926Z,11.10
2022-12-27T16:56:35.894Z,11.10
2022-12-27T16:59:03.689Z,11.10
2022-12-27T17:01:36.599Z,11.00
2022-12-27T17:04:04.215Z,11.00
2022-12-27T17:06:33.159Z,11.00
2022-12-27T17:09:09.614Z,10.90
2022-12-27T17:12:00.857Z,10.90
2022-12-27T17:14:31.659Z,10.90
2022-12-27T17:17:20.826Z,10.90
2022-12-27T17:19:56.367Z,10.90
2022-12-27T17:22:28.811Z,10.90
2022-12-27T17:25:02.105Z,10.90
2022-12-27T17:28:17.201Z,10.90
2022-12-27T17:31:08.879Z,10.90
2022-12-27T17:34:03.869Z,10.90
2022-12-27T17:36:39.197Z,10.90
2022-12-27T17:39:24.452Z,10.90
2022-12-27T17:42:34.381Z,10.90
2022-12-27T17:45:31.307Z,10.90
2022-12-27T17:48:25.050Z,10.90
2022-12-27T17:50:54.668Z,11.00
2022-12-27T17:53:42.090Z,11.00
2022-12-27T17:57:03.930Z,11.00
2022-12-27T17:59:32.503Z,11.00
2022-12-27T18:02:25.909Z,11.00
2022-12-27T18:04:55.508Z,11.00
2022-12-27T18:07:30.055Z,11.10
2022-12-27T18:10:07.563Z,11.10
2022-12-27T18:12:39.625Z,11.10
2022-12-27T18:15:21.859Z,11.10
2022-12-27T18:17:51.923Z,11.20
2022-12-27T18:20:28.133Z,11.20
2022-12-27T18:23:01.113Z,11.20
2022-12-27T18:25:33.957Z,11.20
2022-12-27T18:28:03.530Z,11.20
2022-12-27T18:30:39.698Z,11.20
2022-12-27T18:33:07.220Z,11.20
2022-12-27T18:35:34.928Z,11.30
2022-12-27T18:38:06.903Z,11.30
2022-12-27T18:40:35.135Z,11.30
2022-12-27T18:43:02.043Z,11.30
2022-12-27T18:45:33.664Z,11.30
2022-12-27T18:48:04.517Z,11.30
2022-12-27T18:50:34.404Z,11.30
2022-12-27T18:53:04.827Z,11.30
2022-12-27T18:55:32.250Z,11.30
2022-12-27T18:58:20.730Z,11.30
2022-12-27T19:00:51.490Z,11.30
2022-12-27T19:03:20.842Z,11.30
2022-12-27T19:06:00.561Z,11.30
2022-12-27T19:08:34.806Z,11.30
2022-12-27T19:11:02.598Z,11.30
2022-12-27T19:13:38.561Z,11.30
2022-12-27T19:16:05.685Z,11.30
2022-12-27T19:18:38.433Z,11.30
2022-12-27T19:21:06.825Z,11.20
2022-12-27T19:23:36.897Z,11.20
2022-12-27T19:26:07.992Z,11.20
2022-12-27T19:28:36.046Z,11.20
2022-12-27T19:31:16.303Z,11.20
2022-12-27T19:33:48.186Z,11.20
2022-12-27T19:36:15.300Z,11.20
2022-12-27T19:38:47.797Z,11.10
2022-12-27T19:41:15.961Z,11.10
2022-12-27T19:43:45.890Z,11.10
2022-12-27T19:46:13.875Z,11.10
2022-12-27T19:48:41.485Z,11.10
2022-12-27T19:51:15.692Z,11.10
2022-12-27T19:53:44.293Z,11.10
2022-12-27T19:56:11.796Z,11.10
2022-12-27T19:58:39.005Z,11.00
2022-12-27T20:01:05.901Z,11.00
2022-12-27T20:03:32.913Z,11.00
2022-12-27T20:06:13.410Z,11.00
2022-12-27T20:08:48.616Z,11.00
2022-12-27T20:11:19.580Z,11.00
2022-12-27T20:13:47.295Z,11.00
2022-12-27T20:16:17.630Z,11.00
2022-12-27T20:18:45.529Z,11.00
2022-12-27T20:21:17.498Z,11.00
2022-12-27T20:23:44.639Z,11.00
2022-12-27T20:26:13.815Z,10.90
2022-12-27T20:28:41.178Z,10.90
2022-12-27T20:31:09.501Z,10.90
2022-12-27T20:33:36.384Z,10.90
2022-12-27T20:36:04.166Z,10.90
2022-12-27T20:38:31.570Z,10.90
2022-12-27T20:41:06.572Z,10.90
2022-12-27T20:43:33.441Z,10.90
2022-12-27T20:46:05.273Z,10.90
2022-12-27T20:48:32.170Z,10.90
2022-12-27T20:51:04.773Z,10.90
2022-12-27T20:53:31.568Z,10.80
2022-12-27T20:56:03.054Z,10.80
2022-12-27T20:58:33.964Z,10.90
2022-12-27T21:01:13.308Z,10.80
2022-12-27T21:03:40.504Z,10.80
2022-12-27T21:06:07.689Z,10.80
2022-12-27T21:08:40.413Z,10.80
2022-12-27T21:11:14.334Z,10.80
2022-12-27T21:13:42.702Z,10.80
2022-12-27T21:16:12.505Z,10.80
2022-12-27T21:18:39.389Z,10.80
2022-12-27T21:21:09.426Z,10.70
2022-12-27T21:23:37.828Z,10.80
2022-12-27T21:26:07.596Z,10.70
2022-12-27T21:28:35.458Z,10.70
2022-12-27T21:31:02.416Z,10.70
2022-12-27T21:33:29.583Z,10.70
2022-12-27T21:36:08.539Z,10.70
2022-12-27T21:38:35.819Z,10.70
2022-12-27T21:41:05.195Z,10.70
2022-12-27T21:43:33.144Z,10.70
2022-12-27T21:46:06.292Z,10.70
2022-12-27T21:48:33.484Z,10.70
2022-12-27T21:51:08.923Z,10.70
2022-12-27T21:53:36.136Z,10.70
2022-12-27T21:56:03.657Z,10.70
2022-12-27T21:58:32.100Z,10.60
2022-12-27T22:01:10.858Z,10.60
2022-12-27T22:03:40.149Z,10.60
2022-12-27T22:06:21.269Z,10.70
2022-12-27T22:08:51.282Z,10.60
2022-12-27T22:11:19.688Z,10.60
2022-12-27T22:13:46.733Z,10.60
2022-12-27T22:16:21.598Z,10.70
2022-12-27T22:18:49.261Z,10.60
2022-12-27T22:21:28.471Z,10.60
2022-12-27T22:23:57.791Z,10.60
2022-12-27T22:26:28.112Z,10.60
2022-12-27T22:28:55.202Z,10.60
2022-12-27T22:31:25.257Z,10.60
2022-12-27T22:33:52.417Z,10.70
2022-12-27T22:36:24.451Z,10.60
2022-12-27T22:38:53.585Z,10.60
2022-12-27T22:41:25.968Z,10.60
2022-12-27T22:43:55.924Z,10.60
2022-12-27T22:46:23.598Z,10.70
2022-12-27T22:48:52.201Z,10.70
2022-12-27T22:51:22.681Z,10.60
2022-12-27T22:53:50.159Z,10.70
2022-12-27T22:56:19.964Z,10.70
2022-12-27T22:58:47.682Z,10.70
2022-12-27T23:01:20.427Z,10.70
2022-12-27T23:03:47.850Z,10.70
2022-12-27T23:06:15.095Z,10.60
2022-12-27T23:08:43.643Z,10.70
2022-12-27T23:11:22.610Z,10.70
2022-12-27T23:13:58.559Z,10.60
2022-12-27T23:16:25.795Z,10.70
2022-12-27T23:18:52.967Z,10.70
2022-12-27T23:21:24.592Z,10.70
2022-12-27T23:23:52.651Z,10.60
2022-12-27T23:26:22.110Z,10.60
2022-12-27T23:28:51.216Z,10.60
2022-12-27T23:31:19.960Z,10.60
2022-12-27T23:33:47.332Z,10.70
2022-12-27T23:36:14.663Z,10.60
2022-12-27T23:38:42.693Z,10.60
2022-12-27T23:41:15.684Z,10.60
2022-12-27T23:43:58.224Z,10.60
2022-12-27T23:46:28.182Z,10.60
2022-12-27T23:48:56.546Z,10.60
2022-12-27T23:51:23.854Z,10.60
2022-12-27T23:53:51.060Z,10.60
2022-12-27T23:56:26.506Z,10.60
2022-12-27T23:58:56.347Z,10.60
